sensor_id;sensor_type;location;lat;lon;timestamp;temperature;humidity
17348;DHT22;8791;50.876;4.342;2023-07-24T00:00:24;19.50;99.90
17348;DHT22;8791;50.876;4.342;2023-07-24T00:02:51;19.50;99.90
17348;DHT22;8791;50.876;4.342;2023-07-24T00:05:19;19.50;99.90
17348;DHT22;8791;50.876;4.342;2023-07-24T00:07:46;19.30;99.90
17348;DHT22;8791;50.876;4.342;2023-07-24T00:10:13;19.30;99.90
17348;DHT22;8791;50.876;4.342;2023-07-24T00:12:39;19.30;99.90
17348;DHT22;8791;50.876;4.342;2023-07-24T00:15:07;19.30;99.90
17348;DHT22;8791;50.876;4.342;2023-07-24T00:17:34;19.40;99.90
17348;DHT22;8791;50.876;4.342;2023-07-24T00:20:01;19.50;99.90
17348;DHT22;8791;50.876;4.342;2023-07-24T00:22:28;19.50;99.90
17348;DHT22;8791;50.876;4.342;2023-07-24T00:24:55;19.40;99.90
17348;DHT22;8791;50.876;4.342;2023-07-24T00:27:22;19.40;99.90
17348;DHT22;8791;50.876;4.342;2023-07-24T00:29:49;19.40;99.90
17348;DHT22;8791;50.876;4.342;2023-07-24T00:32:16;19.40;99.90
17348;DHT22;8791;50.876;4.342;2023-07-24T00:34:44;19.30;99.90
17348;DHT22;8791;50.876;4.342;2023-07-24T00:37:11;19.20;99.90
17348;DHT22;8791;50.876;4.342;2023-07-24T00:39:37;19.20;99.90
17348;DHT22;8791;50.876;4.342;2023-07-24T00:42:05;19.30;99.90
17348;DHT22;8791;50.876;4.342;2023-07-24T00:44:32;19.30;99.90
17348;DHT22;8791;50.876;4.342;2023-07-24T00:46:59;19.30;99.90
17348;DHT22;8791;50.876;4.342;2023-07-24T00:49:26;19.30;99.90
17348;DHT22;8791;50.876;4.342;2023-07-24T00:51:54;19.40;99.90
17348;DHT22;8791;50.876;4.342;2023-07-24T00:54:22;19.40;99.90
17348;DHT22;8791;50.876;4.342;2023-07-24T00:56:50;19.50;99.90
17348;DHT22;8791;50.876;4.342;2023-07-24T00:59:17;19.50;99.90
17348;DHT22;8791;50.876;4.342;2023-07-24T01:01:44;19.40;99.90
17348;DHT22;8791;50.876;4.342;2023-07-24T01:04:11;19.40;99.90
17348;DHT22;8791;50.876;4.342;2023-07-24T01:06:38;19.40;99.90
17348;DHT22;8791;50.876;4.342;2023-07-24T01:09:06;19.40;99.90
17348;DHT22;8791;50.876;4.342;2023-07-24T01:11:37;19.40;99.90
17348;DHT22;8791;50.876;4.342;2023-07-24T01:14:11;19.40;99.90
17348;DHT22;8791;50.876;4.342;2023-07-24T01:16:41;19.40;99.90
17348;DHT22;8791;50.876;4.342;2023-07-24T01:19:12;19.30;99.90
17348;DHT22;8791;50.876;4.342;2023-07-24T01:21:52;19.30;99.90
17348;DHT22;8791;50.876;4.342;2023-07-24T01:24:30;19.30;99.90
17348;DHT22;8791;50.876;4.342;2023-07-24T01:27:01;19.30;99.90
17348;DHT22;8791;50.876;4.342;2023-07-24T01:29:28;19.20;99.90
17348;DHT22;8791;50.876;4.342;2023-07-24T01:31:55;19.40;99.90
17348;DHT22;8791;50.876;4.342;2023-07-24T01:34:22;19.50;99.90
17348;DHT22;8791;50.876;4.342;2023-07-24T01:36:49;19.50;99.90
17348;DHT22;8791;50.876;4.342;2023-07-24T01:39:18;19.40;99.90
17348;DHT22;8791;50.876;4.342;2023-07-24T01:41:47;19.50;99.90
17348;DHT22;8791;50.876;4.342;2023-07-24T01:44:15;19.40;99.90
17348;DHT22;8791;50.876;4.342;2023-07-24T01:46:42;19.50;99.90
17348;DHT22;8791;50.876;4.342;2023-07-24T01:49:10;19.30;99.90
17348;DHT22;8791;50.876;4.342;2023-07-24T01:51:37;19.20;99.90
17348;DHT22;8791;50.876;4.342;2023-07-24T01:54:04;19.10;99.90
17348;DHT22;8791;50.876;4.342;2023-07-24T01:56:31;18.90;99.90
17348;DHT22;8791;50.876;4.342;2023-07-24T01:58:58;18.90;99.90
17348;DHT22;8791;50.876;4.342;2023-07-24T02:01:26;18.70;99.90
17348;DHT22;8791;50.876;4.342;2023-07-24T02:03:54;18.80;99.90
17348;DHT22;8791;50.876;4.342;2023-07-24T02:06:22;18.80;99.90
17348;DHT22;8791;50.876;4.342;2023-07-24T02:08:49;18.70;99.90
17348;DHT22;8791;50.876;4.342;2023-07-24T02:11:17;18.70;99.90
17348;DHT22;8791;50.876;4.342;2023-07-24T02:13:44;18.60;99.90
17348;DHT22;8791;50.876;4.342;2023-07-24T02:16:11;18.60;99.90
17348;DHT22;8791;50.876;4.342;2023-07-24T02:18:42;18.50;99.90
17348;DHT22;8791;50.876;4.342;2023-07-24T02:21:09;18.40;99.90
17348;DHT22;8791;50.876;4.342;2023-07-24T02:23:36;18.40;99.90
17348;DHT22;8791;50.876;4.342;2023-07-24T02:26:03;18.50;99.90
17348;DHT22;8791;50.876;4.342;2023-07-24T02:28:30;18.70;99.90
17348;DHT22;8791;50.876;4.342;2023-07-24T02:30:57;18.60;99.90
17348;DHT22;8791;50.876;4.342;2023-07-24T02:33:24;18.50;99.90
17348;DHT22;8791;50.876;4.342;2023-07-24T02:35:53;18.60;99.90
17348;DHT22;8791;50.876;4.342;2023-07-24T02:38:20;18.70;99.90
17348;DHT22;8791;50.876;4.342;2023-07-24T02:40:47;18.60;99.90
17348;DHT22;8791;50.876;4.342;2023-07-24T02:43:14;18.60;99.90
17348;DHT22;8791;50.876;4.342;2023-07-24T02:45:41;18.70;99.90
17348;DHT22;8791;50.876;4.342;2023-07-24T02:48:08;18.70;99.90
17348;DHT22;8791;50.876;4.342;2023-07-24T02:50:34;18.50;99.90
17348;DHT22;8791;50.876;4.342;2023-07-24T02:53:03;18.50;99.90
17348;DHT22;8791;50.876;4.342;2023-07-24T02:55:30;18.50;99.90
17348;DHT22;8791;50.876;4.342;2023-07-24T02:57:57;18.70;99.90
17348;DHT22;8791;50.876;4.342;2023-07-24T03:00:24;18.80;99.90
17348;DHT22;8791;50.876;4.342;2023-07-24T03:02:52;18.60;99.90
17348;DHT22;8791;50.876;4.342;2023-07-24T03:05:19;18.50;99.90
17348;DHT22;8791;50.876;4.342;2023-07-24T03:07:45;18.50;99.90
17348;DHT22;8791;50.876;4.342;2023-07-24T03:10:14;18.50;99.90
17348;DHT22;8791;50.876;4.342;2023-07-24T03:12:41;18.40;99.90
17348;DHT22;8791;50.876;4.342;2023-07-24T03:15:08;18.40;99.90
17348;DHT22;8791;50.876;4.342;2023-07-24T03:17:35;18.30;99.90
17348;DHT22;8791;50.876;4.342;2023-07-24T03:20:08;18.20;99.90
17348;DHT22;8791;50.876;4.342;2023-07-24T03:22:36;18.10;99.90
17348;DHT22;8791;50.876;4.342;2023-07-24T03:25:03;18.10;99.90
17348;DHT22;8791;50.876;4.342;2023-07-24T03:27:31;18.10;99.90
17348;DHT22;8791;50.876;4.342;2023-07-24T03:29:59;18.00;99.90
17348;DHT22;8791;50.876;4.342;2023-07-24T03:32:26;17.90;99.90
17348;DHT22;8791;50.876;4.342;2023-07-24T03:34:53;18.00;99.90
17348;DHT22;8791;50.876;4.342;2023-07-24T03:37:20;18.00;99.90
17348;DHT22;8791;50.876;4.342;2023-07-24T03:39:47;18.10;99.90
17348;DHT22;8791;50.876;4.342;2023-07-24T03:42:24;18.00;99.90
17348;DHT22;8791;50.876;4.342;2023-07-24T03:44:53;18.00;99.90
17348;DHT22;8791;50.876;4.342;2023-07-24T03:47:20;17.90;99.90
17348;DHT22;8791;50.876;4.342;2023-07-24T03:49:47;17.90;99.90
17348;DHT22;8791;50.876;4.342;2023-07-24T03:52:14;17.90;99.90
17348;DHT22;8791;50.876;4.342;2023-07-24T03:54:41;17.80;99.90
17348;DHT22;8791;50.876;4.342;2023-07-24T03:57:08;17.80;99.90
17348;DHT22;8791;50.876;4.342;2023-07-24T03:59:35;17.90;99.90
17348;DHT22;8791;50.876;4.342;2023-07-24T04:02:04;18.00;99.90
17348;DHT22;8791;50.876;4.342;2023-07-24T04:04:31;17.80;99.90
17348;DHT22;8791;50.876;4.342;2023-07-24T04:06:59;17.90;99.90
17348;DHT22;8791;50.876;4.342;2023-07-24T04:09:26;17.90;99.90
17348;DHT22;8791;50.876;4.342;2023-07-24T04:11:53;17.90;99.90
17348;DHT22;8791;50.876;4.342;2023-07-24T04:14:20;17.90;99.90
17348;DHT22;8791;50.876;4.342;2023-07-24T04:16:47;17.90;99.90
17348;DHT22;8791;50.876;4.342;2023-07-24T04:19:15;17.80;99.90
17348;DHT22;8791;50.876;4.342;2023-07-24T04:21:42;17.70;99.90
17348;DHT22;8791;50.876;4.342;2023-07-24T04:24:09;17.60;99.90
17348;DHT22;8791;50.876;4.342;2023-07-24T04:26:36;17.60;99.90
17348;DHT22;8791;50.876;4.342;2023-07-24T04:29:03;17.70;99.90
17348;DHT22;8791;50.876;4.342;2023-07-24T04:31:29;17.80;99.90
17348;DHT22;8791;50.876;4.342;2023-07-24T04:33:56;17.90;99.90
17348;DHT22;8791;50.876;4.342;2023-07-24T04:36:25;18.00;99.90
17348;DHT22;8791;50.876;4.342;2023-07-24T04:38:51;17.90;99.90
17348;DHT22;8791;50.876;4.342;2023-07-24T04:41:18;17.90;99.90
17348;DHT22;8791;50.876;4.342;2023-07-24T04:43:45;17.80;99.90
17348;DHT22;8791;50.876;4.342;2023-07-24T04:46:12;17.70;99.90
17348;DHT22;8791;50.876;4.342;2023-07-24T04:48:39;17.70;99.90
17348;DHT22;8791;50.876;4.342;2023-07-24T04:51:06;17.70;99.90
17348;DHT22;8791;50.876;4.342;2023-07-24T04:53:34;17.90;99.90
17348;DHT22;8791;50.876;4.342;2023-07-24T04:56:01;17.90;99.90
17348;DHT22;8791;50.876;4.342;2023-07-24T04:58:28;17.80;99.90
17348;DHT22;8791;50.876;4.342;2023-07-24T05:00:55;17.70;99.90
17348;DHT22;8791;50.876;4.342;2023-07-24T05:03:22;17.80;99.90
17348;DHT22;8791;50.876;4.342;2023-07-24T05:05:54;17.70;99.90
17348;DHT22;8791;50.876;4.342;2023-07-24T05:08:23;17.90;99.90
17348;DHT22;8791;50.876;4.342;2023-07-24T05:10:55;17.90;99.90
17348;DHT22;8791;50.876;4.342;2023-07-24T05:13:22;17.90;99.90
17348;DHT22;8791;50.876;4.342;2023-07-24T05:15:49;17.90;99.90
17348;DHT22;8791;50.876;4.342;2023-07-24T05:18:16;17.90;99.90
17348;DHT22;8791;50.876;4.342;2023-07-24T05:20:44;18.00;99.90
17348;DHT22;8791;50.876;4.342;2023-07-24T05:23:12;18.00;99.90
17348;DHT22;8791;50.876;4.342;2023-07-24T05:25:39;18.10;99.90
17348;DHT22;8791;50.876;4.342;2023-07-24T05:28:08;18.00;99.90
17348;DHT22;8791;50.876;4.342;2023-07-24T05:30:35;18.10;99.90
17348;DHT22;8791;50.876;4.342;2023-07-24T05:33:01;18.00;99.90
17348;DHT22;8791;50.876;4.342;2023-07-24T05:35:28;18.00;99.90
17348;DHT22;8791;50.876;4.342;2023-07-24T05:37:55;18.10;99.90
17348;DHT22;8791;50.876;4.342;2023-07-24T05:40:25;18.20;99.90
17348;DHT22;8791;50.876;4.342;2023-07-24T05:42:52;18.20;99.90
17348;DHT22;8791;50.876;4.342;2023-07-24T05:45:20;18.50;99.90
17348;DHT22;8791;50.876;4.342;2023-07-24T05:47:47;18.50;99.90
17348;DHT22;8791;50.876;4.342;2023-07-24T05:50:14;18.60;99.90
17348;DHT22;8791;50.876;4.342;2023-07-24T05:52:41;18.50;99.90
17348;DHT22;8791;50.876;4.342;2023-07-24T05:55:08;18.60;99.90
17348;DHT22;8791;50.876;4.342;2023-07-24T05:57:36;18.70;99.90
17348;DHT22;8791;50.876;4.342;2023-07-24T06:00:03;18.50;99.90
17348;DHT22;8791;50.876;4.342;2023-07-24T06:02:31;18.50;99.90
17348;DHT22;8791;50.876;4.342;2023-07-24T06:04:58;18.30;99.90
17348;DHT22;8791;50.876;4.342;2023-07-24T06:07:25;18.20;99.90
17348;DHT22;8791;50.876;4.342;2023-07-24T06:09:52;18.10;99.90
17348;DHT22;8791;50.876;4.342;2023-07-24T06:12:19;18.20;99.90
17348;DHT22;8791;50.876;4.342;2023-07-24T06:14:46;18.20;99.90
17348;DHT22;8791;50.876;4.342;2023-07-24T06:17:12;18.30;99.90
17348;DHT22;8791;50.876;4.342;2023-07-24T06:19:41;18.40;99.90
17348;DHT22;8791;50.876;4.342;2023-07-24T06:22:07;18.40;99.90
17348;DHT22;8791;50.876;4.342;2023-07-24T06:24:34;18.50;99.90
17348;DHT22;8791;50.876;4.342;2023-07-24T06:27:01;18.50;99.90
17348;DHT22;8791;50.876;4.342;2023-07-24T06:29:28;18.50;99.90
17348;DHT22;8791;50.876;4.342;2023-07-24T06:31:55;18.50;99.90
17348;DHT22;8791;50.876;4.342;2023-07-24T06:34:22;18.60;99.90
17348;DHT22;8791;50.876;4.342;2023-07-24T06:36:50;18.60;99.90
17348;DHT22;8791;50.876;4.342;2023-07-24T06:39:17;18.60;99.90
17348;DHT22;8791;50.876;4.342;2023-07-24T06:41:44;18.60;99.90
17348;DHT22;8791;50.876;4.342;2023-07-24T06:44:11;18.60;99.90
17348;DHT22;8791;50.876;4.342;2023-07-24T06:46:38;18.70;99.90
17348;DHT22;8791;50.876;4.342;2023-07-24T06:49:05;18.90;99.90
17348;DHT22;8791;50.876;4.342;2023-07-24T06:51:33;19.10;99.90
17348;DHT22;8791;50.876;4.342;2023-07-24T06:54:01;19.20;99.90
17348;DHT22;8791;50.876;4.342;2023-07-24T06:56:28;19.40;99.90
17348;DHT22;8791;50.876;4.342;2023-07-24T06:58:55;19.50;99.90
17348;DHT22;8791;50.876;4.342;2023-07-24T07:01:22;19.50;99.90
17348;DHT22;8791;50.876;4.342;2023-07-24T07:03:49;19.70;99.90
17348;DHT22;8791;50.876;4.342;2023-07-24T07:06:16;19.40;99.90
17348;DHT22;8791;50.876;4.342;2023-07-24T07:08:43;19.50;99.90
17348;DHT22;8791;50.876;4.342;2023-07-24T07:11:11;19.30;99.90
17348;DHT22;8791;50.876;4.342;2023-07-24T07:13:38;19.30;99.90
17348;DHT22;8791;50.876;4.342;2023-07-24T07:16:05;19.50;99.90
17348;DHT22;8791;50.876;4.342;2023-07-24T07:18:32;19.60;99.90
17348;DHT22;8791;50.876;4.342;2023-07-24T07:20:58;19.60;99.90
17348;DHT22;8791;50.876;4.342;2023-07-24T07:23:25;19.50;99.90
17348;DHT22;8791;50.876;4.342;2023-07-24T07:25:52;19.50;99.90
17348;DHT22;8791;50.876;4.342;2023-07-24T07:28:20;19.60;99.90
17348;DHT22;8791;50.876;4.342;2023-07-24T07:30:47;19.50;99.90
17348;DHT22;8791;50.876;4.342;2023-07-24T07:33:14;19.70;99.90
17348;DHT22;8791;50.876;4.342;2023-07-24T07:35:41;19.70;99.90
17348;DHT22;8791;50.876;4.342;2023-07-24T07:38:08;19.70;99.90
17348;DHT22;8791;50.876;4.342;2023-07-24T07:40:37;19.70;99.90
17348;DHT22;8791;50.876;4.342;2023-07-24T07:43:04;19.20;99.90
17348;DHT22;8791;50.876;4.342;2023-07-24T07:45:32;19.40;99.90
17348;DHT22;8791;50.876;4.342;2023-07-24T07:48:00;19.80;99.90
17348;DHT22;8791;50.876;4.342;2023-07-24T07:50:26;20.10;99.90
17348;DHT22;8791;50.876;4.342;2023-07-24T07:52:53;20.10;99.90
17348;DHT22;8791;50.876;4.342;2023-07-24T07:55:20;20.40;99.90
17348;DHT22;8791;50.876;4.342;2023-07-24T07:57:47;20.50;99.90
17348;DHT22;8791;50.876;4.342;2023-07-24T08:00:15;19.90;99.90
17348;DHT22;8791;50.876;4.342;2023-07-24T08:02:43;20.10;99.90
17348;DHT22;8791;50.876;4.342;2023-07-24T08:05:10;20.20;99.90
17348;DHT22;8791;50.876;4.342;2023-07-24T08:07:37;20.40;99.90
17348;DHT22;8791;50.876;4.342;2023-07-24T08:10:05;20.70;99.90
17348;DHT22;8791;50.876;4.342;2023-07-24T08:12:33;20.70;99.90
17348;DHT22;8791;50.876;4.342;2023-07-24T08:15:00;20.70;99.90
17348;DHT22;8791;50.876;4.342;2023-07-24T08:17:26;20.50;99.90
17348;DHT22;8791;50.876;4.342;2023-07-24T08:19:55;20.50;99.90
17348;DHT22;8791;50.876;4.342;2023-07-24T08:22:22;20.60;99.90
17348;DHT22;8791;50.876;4.342;2023-07-24T08:24:49;20.50;99.90
17348;DHT22;8791;50.876;4.342;2023-07-24T08:27:16;20.60;99.90
17348;DHT22;8791;50.876;4.342;2023-07-24T08:29:43;20.50;99.90
17348;DHT22;8791;50.876;4.342;2023-07-24T08:32:10;20.30;99.90
17348;DHT22;8791;50.876;4.342;2023-07-24T08:34:38;20.20;99.90
17348;DHT22;8791;50.876;4.342;2023-07-24T08:37:06;19.90;99.90
17348;DHT22;8791;50.876;4.342;2023-07-24T08:39:33;19.90;99.90
17348;DHT22;8791;50.876;4.342;2023-07-24T08:42:08;20.00;99.90
17348;DHT22;8791;50.876;4.342;2023-07-24T08:44:35;20.20;99.90
17348;DHT22;8791;50.876;4.342;2023-07-24T08:47:03;20.30;99.90
17348;DHT22;8791;50.876;4.342;2023-07-24T08:49:32;20.40;99.90
17348;DHT22;8791;50.876;4.342;2023-07-24T08:52:00;20.20;99.90
17348;DHT22;8791;50.876;4.342;2023-07-24T08:54:30;19.80;99.90
17348;DHT22;8791;50.876;4.342;2023-07-24T08:56:57;19.80;99.90
17348;DHT22;8791;50.876;4.342;2023-07-24T08:59:24;19.70;99.90
17348;DHT22;8791;50.876;4.342;2023-07-24T09:01:51;19.70;99.90
17348;DHT22;8791;50.876;4.342;2023-07-24T09:04:18;19.70;99.90
17348;DHT22;8791;50.876;4.342;2023-07-24T09:06:45;19.60;99.90
17348;DHT22;8791;50.876;4.342;2023-07-24T09:09:13;19.40;99.90
17348;DHT22;8791;50.876;4.342;2023-07-24T09:11:49;19.50;99.90
17348;DHT22;8791;50.876;4.342;2023-07-24T09:14:23;19.80;99.90
17348;DHT22;8791;50.876;4.342;2023-07-24T09:17:01;19.60;99.90
17348;DHT22;8791;50.876;4.342;2023-07-24T09:19:28;19.70;99.90
17348;DHT22;8791;50.876;4.342;2023-07-24T09:21:54;19.60;99.90
17348;DHT22;8791;50.876;4.342;2023-07-24T09:24:21;19.70;99.90
17348;DHT22;8791;50.876;4.342;2023-07-24T09:26:51;19.70;99.90
17348;DHT22;8791;50.876;4.342;2023-07-24T09:29:19;19.60;99.90
17348;DHT22;8791;50.876;4.342;2023-07-24T09:31:46;19.70;99.90
17348;DHT22;8791;50.876;4.342;2023-07-24T09:34:19;19.70;99.90
17348;DHT22;8791;50.876;4.342;2023-07-24T09:36:45;19.70;99.90
17348;DHT22;8791;50.876;4.342;2023-07-24T09:39:12;19.80;99.90
17348;DHT22;8791;50.876;4.342;2023-07-24T09:41:39;19.80;99.90
17348;DHT22;8791;50.876;4.342;2023-07-24T09:44:11;19.40;99.90
17348;DHT22;8791;50.876;4.342;2023-07-24T09:46:38;19.50;99.90
17348;DHT22;8791;50.876;4.342;2023-07-24T09:49:06;19.50;99.90
17348;DHT22;8791;50.876;4.342;2023-07-24T09:51:35;19.50;99.90
17348;DHT22;8791;50.876;4.342;2023-07-24T09:54:09;19.40;99.90
17348;DHT22;8791;50.876;4.342;2023-07-24T09:56:40;19.40;99.90
17348;DHT22;8791;50.876;4.342;2023-07-24T09:59:10;19.60;99.90
17348;DHT22;8791;50.876;4.342;2023-07-24T10:01:39;19.40;99.90
17348;DHT22;8791;50.876;4.342;2023-07-24T10:04:07;19.20;99.90
17348;DHT22;8791;50.876;4.342;2023-07-24T10:06:34;18.80;99.90
17348;DHT22;8791;50.876;4.342;2023-07-24T10:09:01;18.90;99.90
17348;DHT22;8791;50.876;4.342;2023-07-24T10:11:29;19.10;99.90
17348;DHT22;8791;50.876;4.342;2023-07-24T10:13:56;19.20;99.90
17348;DHT22;8791;50.876;4.342;2023-07-24T10:16:24;19.20;99.90
17348;DHT22;8791;50.876;4.342;2023-07-24T10:18:51;19.20;99.90
17348;DHT22;8791;50.876;4.342;2023-07-24T10:21:26;19.20;99.90
17348;DHT22;8791;50.876;4.342;2023-07-24T10:23:54;19.10;99.90
17348;DHT22;8791;50.876;4.342;2023-07-24T10:26:24;19.30;99.90
17348;DHT22;8791;50.876;4.342;2023-07-24T10:28:51;19.40;99.90
17348;DHT22;8791;50.876;4.342;2023-07-24T10:31:20;19.30;99.90
17348;DHT22;8791;50.876;4.342;2023-07-24T10:33:49;19.40;99.90
17348;DHT22;8791;50.876;4.342;2023-07-24T10:36:18;19.60;99.90
17348;DHT22;8791;50.876;4.342;2023-07-24T10:38:51;20.00;99.90
17348;DHT22;8791;50.876;4.342;2023-07-24T10:41:22;20.20;99.90
17348;DHT22;8791;50.876;4.342;2023-07-24T10:43:50;20.50;99.90
17348;DHT22;8791;50.876;4.342;2023-07-24T10:46:21;20.70;99.90
17348;DHT22;8791;50.876;4.342;2023-07-24T10:48:50;21.20;99.90
17348;DHT22;8791;50.876;4.342;2023-07-24T10:51:19;21.20;99.90
17348;DHT22;8791;50.876;4.342;2023-07-24T10:53:48;21.40;99.90
17348;DHT22;8791;50.876;4.342;2023-07-24T10:56:16;21.60;99.90
17348;DHT22;8791;50.876;4.342;2023-07-24T10:58:43;21.60;99.90
17348;DHT22;8791;50.876;4.342;2023-07-24T11:01:10;21.70;99.90
17348;DHT22;8791;50.876;4.342;2023-07-24T11:03:39;21.60;99.90
17348;DHT22;8791;50.876;4.342;2023-07-24T11:06:12;21.70;99.90
17348;DHT22;8791;50.876;4.342;2023-07-24T11:08:39;21.70;99.90
17348;DHT22;8791;50.876;4.342;2023-07-24T11:11:07;21.70;99.90
17348;DHT22;8791;50.876;4.342;2023-07-24T11:13:34;21.70;99.90
17348;DHT22;8791;50.876;4.342;2023-07-24T11:16:04;21.60;99.90
17348;DHT22;8791;50.876;4.342;2023-07-24T11:18:32;21.80;99.90
17348;DHT22;8791;50.876;4.342;2023-07-24T11:20:59;21.70;99.90
17348;DHT22;8791;50.876;4.342;2023-07-24T11:23:27;21.60;99.90
17348;DHT22;8791;50.876;4.342;2023-07-24T11:25:54;21.70;99.90
17348;DHT22;8791;50.876;4.342;2023-07-24T11:28:21;21.60;99.90
17348;DHT22;8791;50.876;4.342;2023-07-24T11:30:48;21.70;99.90
17348;DHT22;8791;50.876;4.342;2023-07-24T11:33:18;21.70;99.90
17348;DHT22;8791;50.876;4.342;2023-07-24T11:35:45;21.80;99.90
17348;DHT22;8791;50.876;4.342;2023-07-24T11:38:13;21.70;99.90
17348;DHT22;8791;50.876;4.342;2023-07-24T11:40:43;21.60;99.90
17348;DHT22;8791;50.876;4.342;2023-07-24T11:43:15;21.40;99.90
17348;DHT22;8791;50.876;4.342;2023-07-24T11:45:44;21.70;99.90
17348;DHT22;8791;50.876;4.342;2023-07-24T11:48:12;22.00;99.90
17348;DHT22;8791;50.876;4.342;2023-07-24T11:50:43;21.90;99.90
17348;DHT22;8791;50.876;4.342;2023-07-24T11:53:22;22.10;99.90
17348;DHT22;8791;50.876;4.342;2023-07-24T11:55:51;22.00;99.90
17348;DHT22;8791;50.876;4.342;2023-07-24T11:58:19;22.00;99.90
17348;DHT22;8791;50.876;4.342;2023-07-24T12:00:46;22.20;99.90
17348;DHT22;8791;50.876;4.342;2023-07-24T12:03:13;22.30;99.90
17348;DHT22;8791;50.876;4.342;2023-07-24T12:05:41;22.20;99.90
17348;DHT22;8791;50.876;4.342;2023-07-24T12:08:09;22.40;99.90
17348;DHT22;8791;50.876;4.342;2023-07-24T12:10:36;22.30;99.90
17348;DHT22;8791;50.876;4.342;2023-07-24T12:13:05;22.30;99.90
17348;DHT22;8791;50.876;4.342;2023-07-24T12:15:33;22.20;99.90
17348;DHT22;8791;50.876;4.342;2023-07-24T12:18:01;22.40;99.90
17348;DHT22;8791;50.876;4.342;2023-07-24T12:20:28;22.60;99.90
17348;DHT22;8791;50.876;4.342;2023-07-24T12:22:56;22.90;99.90
17348;DHT22;8791;50.876;4.342;2023-07-24T12:25:23;22.70;99.90
17348;DHT22;8791;50.876;4.342;2023-07-24T12:27:50;22.50;99.90
17348;DHT22;8791;50.876;4.342;2023-07-24T12:30:19;22.50;99.90
17348;DHT22;8791;50.876;4.342;2023-07-24T12:32:45;22.80;99.90
17348;DHT22;8791;50.876;4.342;2023-07-24T12:35:12;22.60;99.90
17348;DHT22;8791;50.876;4.342;2023-07-24T12:37:40;22.50;99.90
17348;DHT22;8791;50.876;4.342;2023-07-24T12:40:08;22.60;99.90
17348;DHT22;8791;50.876;4.342;2023-07-24T12:42:35;22.60;99.90
17348;DHT22;8791;50.876;4.342;2023-07-24T12:45:02;22.90;99.90
17348;DHT22;8791;50.876;4.342;2023-07-24T12:47:31;22.90;99.90
17348;DHT22;8791;50.876;4.342;2023-07-24T12:49:58;22.20;99.90
17348;DHT22;8791;50.876;4.342;2023-07-24T12:52:25;22.30;99.90
17348;DHT22;8791;50.876;4.342;2023-07-24T12:54:53;22.30;99.90
17348;DHT22;8791;50.876;4.342;2023-07-24T12:57:20;22.30;99.90
17348;DHT22;8791;50.876;4.342;2023-07-24T12:59:47;22.40;99.90
17348;DHT22;8791;50.876;4.342;2023-07-24T13:02:13;22.60;99.90
17348;DHT22;8791;50.876;4.342;2023-07-24T13:04:42;22.50;99.90
17348;DHT22;8791;50.876;4.342;2023-07-24T13:07:09;22.50;99.90
17348;DHT22;8791;50.876;4.342;2023-07-24T13:09:36;22.30;99.90
17348;DHT22;8791;50.876;4.342;2023-07-24T13:12:03;22.30;99.90
17348;DHT22;8791;50.876;4.342;2023-07-24T13:14:30;22.30;99.90
17348;DHT22;8791;50.876;4.342;2023-07-24T13:16:57;22.30;99.90
17348;DHT22;8791;50.876;4.342;2023-07-24T13:19:24;22.20;99.90
17348;DHT22;8791;50.876;4.342;2023-07-24T13:21:52;22.30;99.90
17348;DHT22;8791;50.876;4.342;2023-07-24T13:24:19;22.10;99.90
17348;DHT22;8791;50.876;4.342;2023-07-24T13:26:46;22.10;99.90
17348;DHT22;8791;50.876;4.342;2023-07-24T13:29:13;22.20;99.90
17348;DHT22;8791;50.876;4.342;2023-07-24T13:31:40;22.20;99.90
17348;DHT22;8791;50.876;4.342;2023-07-24T13:34:07;22.40;99.90
17348;DHT22;8791;50.876;4.342;2023-07-24T13:36:34;22.30;99.90
17348;DHT22;8791;50.876;4.342;2023-07-24T13:39:03;22.30;99.90
17348;DHT22;8791;50.876;4.342;2023-07-24T13:41:30;22.40;99.90
17348;DHT22;8791;50.876;4.342;2023-07-24T13:43:57;22.60;99.90
17348;DHT22;8791;50.876;4.342;2023-07-24T13:46:24;22.80;99.90
17348;DHT22;8791;50.876;4.342;2023-07-24T13:48:51;22.80;99.90
17348;DHT22;8791;50.876;4.342;2023-07-24T13:51:17;22.70;99.90
17348;DHT22;8791;50.876;4.342;2023-07-24T13:53:44;22.80;99.90
17348;DHT22;8791;50.876;4.342;2023-07-24T13:56:15;22.80;99.90
17348;DHT22;8791;50.876;4.342;2023-07-24T13:58:42;22.80;99.90
17348;DHT22;8791;50.876;4.342;2023-07-24T14:01:09;22.80;99.90
17348;DHT22;8791;50.876;4.342;2023-07-24T14:03:36;22.70;99.90
17348;DHT22;8791;50.876;4.342;2023-07-24T14:06:03;22.90;99.90
17348;DHT22;8791;50.876;4.342;2023-07-24T14:08:30;23.00;99.90
17348;DHT22;8791;50.876;4.342;2023-07-24T14:10:57;22.80;99.90
17348;DHT22;8791;50.876;4.342;2023-07-24T14:13:25;22.50;99.90
17348;DHT22;8791;50.876;4.342;2023-07-24T14:15:52;22.60;99.90
17348;DHT22;8791;50.876;4.342;2023-07-24T14:18:19;22.70;99.90
17348;DHT22;8791;50.876;4.342;2023-07-24T14:20:46;22.90;99.90
17348;DHT22;8791;50.876;4.342;2023-07-24T14:23:13;22.60;99.90
17348;DHT22;8791;50.876;4.342;2023-07-24T14:25:40;22.80;99.90
17348;DHT22;8791;50.876;4.342;2023-07-24T14:28:06;22.90;99.90
17348;DHT22;8791;50.876;4.342;2023-07-24T14:30:35;23.10;99.90
17348;DHT22;8791;50.876;4.342;2023-07-24T14:33:02;23.00;99.90
17348;DHT22;8791;50.876;4.342;2023-07-24T14:35:33;23.20;99.90
17348;DHT22;8791;50.876;4.342;2023-07-24T14:38:00;23.20;99.90
17348;DHT22;8791;50.876;4.342;2023-07-24T14:40:27;23.00;99.90
17348;DHT22;8791;50.876;4.342;2023-07-24T14:42:54;22.70;99.90
17348;DHT22;8791;50.876;4.342;2023-07-24T14:45:21;21.60;99.90
17348;DHT22;8791;50.876;4.342;2023-07-24T14:47:49;21.20;99.90
17348;DHT22;8791;50.876;4.342;2023-07-24T14:50:16;21.20;99.90
17348;DHT22;8791;50.876;4.342;2023-07-24T14:52:43;21.10;99.90
17348;DHT22;8791;50.876;4.342;2023-07-24T14:55:10;20.80;99.90
17348;DHT22;8791;50.876;4.342;2023-07-24T14:57:37;20.60;99.90
17348;DHT22;8791;50.876;4.342;2023-07-24T15:00:06;20.60;99.90
17348;DHT22;8791;50.876;4.342;2023-07-24T15:02:33;20.30;99.90
17348;DHT22;8791;50.876;4.342;2023-07-24T15:05:02;20.00;99.90
17348;DHT22;8791;50.876;4.342;2023-07-24T15:07:29;19.40;99.90
17348;DHT22;8791;50.876;4.342;2023-07-24T15:09:56;19.00;99.90
17348;DHT22;8791;50.876;4.342;2023-07-24T15:12:23;18.50;99.90
17348;DHT22;8791;50.876;4.342;2023-07-24T15:14:50;18.30;99.90
17348;DHT22;8791;50.876;4.342;2023-07-24T15:17:23;18.20;99.90
17348;DHT22;8791;50.876;4.342;2023-07-24T15:19:50;18.00;99.90
17348;DHT22;8791;50.876;4.342;2023-07-24T15:22:19;17.90;99.90
17348;DHT22;8791;50.876;4.342;2023-07-24T15:24:46;17.80;99.90
17348;DHT22;8791;50.876;4.342;2023-07-24T15:27:12;17.90;99.90
17348;DHT22;8791;50.876;4.342;2023-07-24T15:29:39;18.00;99.90
17348;DHT22;8791;50.876;4.342;2023-07-24T15:32:07;18.00;99.90
17348;DHT22;8791;50.876;4.342;2023-07-24T15:34:34;18.10;99.90
17348;DHT22;8791;50.876;4.342;2023-07-24T15:37:01;18.20;99.90
17348;DHT22;8791;50.876;4.342;2023-07-24T15:39:29;18.40;99.90
17348;DHT22;8791;50.876;4.342;2023-07-24T15:41:56;18.70;99.90
17348;DHT22;8791;50.876;4.342;2023-07-24T15:44:23;19.10;99.90
17348;DHT22;8791;50.876;4.342;2023-07-24T15:46:50;19.60;99.90